sensor_id;sensor_type;location;lat;lon;timestamp;pressure;altitude;pressure_sealevel;temperature;humidity
15444;BME280;7822;48.146;11.576;2023-02-28T00:01:07;95516.59;;;14.14;54.35
15444;BME280;7822;48.146;11.576;2023-02-28T00:03:34;95504.50;;;14.13;54.41
15444;BME280;7822;48.146;11.576;2023-02-28T00:06:03;95515.75;;;14.13;54.47
15444;BME280;7822;48.146;11.576;2023-02-28T00:08:31;95508.88;;;14.12;54.54
15444;BME280;7822;48.146;11.576;2023-02-28T00:11:01;95508.88;;;14.12;54.54
15444;BME280;7822;48.146;11.576;2023-02-28T00:13:30;95498.59;;;14.11;54.45
15444;BME280;7822;48.146;11.576;2023-02-28T00:16:01;95500.25;;;14.12;54.72
15444;BME280;7822;48.146;11.576;2023-02-28T00:18:31;95492.53;;;14.10;54.25
15444;BME280;7822;48.146;11.576;2023-02-28T00:20:59;95498.59;;;14.11;54.44
15444;BME280;7822;48.146;11.576;2023-02-28T00:23:27;95493.38;;;14.11;54.56
15444;BME280;7822;48.146;11.576;2023-02-28T00:25:55;95489.94;;;14.10;54.33
15444;BME280;7822;48.146;11.576;2023-02-28T00:28:23;95492.44;;;14.12;54.81
15444;BME280;7822;48.146;11.576;2023-02-28T00:30:51;95490.78;;;14.11;54.38
15444;BME280;7822;48.146;11.576;2023-02-28T00:33:19;95501.88;;;14.13;54.67
15444;BME280;7822;48.146;11.576;2023-02-28T00:35:48;95491.44;;;14.13;54.67
15444;BME280;7822;48.146;11.576;2023-02-28T00:38:15;95488.00;;;14.12;54.70
15444;BME280;7822;48.146;11.576;2023-02-28T00:40:43;95494.88;;;14.13;54.74
15444;BME280;7822;48.146;11.576;2023-02-28T00:43:11;95494.06;;;14.13;54.54
15444;BME280;7822;48.146;11.576;2023-02-28T00:45:38;95486.22;;;14.13;54.80
15444;BME280;7822;48.146;11.576;2023-02-28T00:48:06;95489.66;;;14.13;54.74
15444;BME280;7822;48.146;11.576;2023-02-28T00:50:34;95493.13;;;14.14;54.73
15444;BME280;7822;48.146;11.576;2023-02-28T00:53:03;95494.75;;;14.15;54.76
15444;BME280;7822;48.146;11.576;2023-02-28T00:55:30;95490.34;;;14.16;54.41
15444;BME280;7822;48.146;11.576;2023-02-28T00:57:58;95493.78;;;14.16;54.71
15444;BME280;7822;48.146;11.576;2023-02-28T01:00:25;95492.97;;;14.16;54.77
15444;BME280;7822;48.146;11.576;2023-02-28T01:02:53;95493.13;;;14.14;54.80
15444;BME280;7822;48.146;11.576;2023-02-28T01:05:21;95482.53;;;14.16;54.76
15444;BME280;7822;48.146;11.576;2023-02-28T01:07:48;95488.56;;;14.16;55.04
15444;BME280;7822;48.146;11.576;2023-02-28T01:10:17;95478.13;;;14.16;54.78
15444;BME280;7822;48.146;11.576;2023-02-28T01:12:47;95475.66;;;14.14;54.76
15444;BME280;7822;48.146;11.576;2023-02-28T01:15:14;95473.88;;;14.15;54.60
15444;BME280;7822;48.146;11.576;2023-02-28T01:17:42;95474.03;;;14.13;54.91
15444;BME280;7822;48.146;11.576;2023-02-28T01:20:10;95479.09;;;14.15;54.97
15444;BME280;7822;48.146;11.576;2023-02-28T01:22:38;95483.47;;;14.14;54.96
15444;BME280;7822;48.146;11.576;2023-02-28T01:25:07;95474.03;;;14.13;54.99
15444;BME280;7822;48.146;11.576;2023-02-28T01:27:36;95467.13;;;14.12;54.92
15444;BME280;7822;48.146;11.576;2023-02-28T01:30:07;95468.94;;;14.12;54.81
15444;BME280;7822;48.146;11.576;2023-02-28T01:32:35;95466.34;;;14.12;54.93
15444;BME280;7822;48.146;11.576;2023-02-28T01:35:03;95464.53;;;14.12;54.96
15444;BME280;7822;48.146;11.576;2023-02-28T01:37:31;95463.84;;;14.10;54.95
15444;BME280;7822;48.146;11.576;2023-02-28T01:39:58;95458.50;;;14.12;54.93
15444;BME280;7822;48.146;11.576;2023-02-28T01:42:26;95466.47;;;14.10;55.02
15444;BME280;7822;48.146;11.576;2023-02-28T01:45:00;95456.03;;;14.10;54.70
15444;BME280;7822;48.146;11.576;2023-02-28T01:47:31;95456.03;;;14.10;54.95
15444;BME280;7822;48.146;11.576;2023-02-28T01:50:02;95453.41;;;14.10;54.98
15444;BME280;7822;48.146;11.576;2023-02-28T01:52:32;95458.63;;;14.10;55.03
15444;BME280;7822;48.146;11.576;2023-02-28T01:55:02;95455.19;;;14.10;54.95
15444;BME280;7822;48.146;11.576;2023-02-28T01:57:35;95454.25;;;14.11;55.14
15444;BME280;7822;48.146;11.576;2023-02-28T02:00:08;95449.19;;;14.09;55.09
15444;BME280;7822;48.146;11.576;2023-02-28T02:02:37;95449.97;;;14.10;55.18
15444;BME280;7822;48.146;11.576;2023-02-28T02:05:08;95447.38;;;14.10;55.36
15444;BME280;7822;48.146;11.576;2023-02-28T02:07:38;95453.41;;;14.10;55.15
15444;BME280;7822;48.146;11.576;2023-02-28T02:10:12;95444.75;;;14.10;55.18
15444;BME280;7822;48.146;11.576;2023-02-28T02:13:08;95441.34;;;14.09;55.28
15444;BME280;7822;48.146;11.576;2023-02-28T02:15:42;95445.59;;;14.10;55.61
15444;BME280;7822;48.146;11.576;2023-02-28T02:18:18;95453.41;;;14.10;55.41
15444;BME280;7822;48.146;11.576;2023-02-28T02:21:14;95445.72;;;14.09;55.26
15444;BME280;7822;48.146;11.576;2023-02-28T02:23:58;95445.59;;;14.10;55.19
15444;BME280;7822;48.146;11.576;2023-02-28T02:26:45;95436.13;;;14.09;55.03
15444;BME280;7822;48.146;11.576;2023-02-28T02:29:40;95444.63;;;14.11;55.16
15444;BME280;7822;48.146;11.576;2023-02-28T02:35:11;95444.63;;;14.11;55.34
15444;BME280;7822;48.146;11.576;2023-02-28T02:37:43;95442.03;;;14.11;55.38
15444;BME280;7822;48.146;11.576;2023-02-28T02:40:17;95437.66;;;14.12;55.36
15444;BME280;7822;48.146;11.576;2023-02-28T02:42:51;95439.28;;;14.13;55.22
15444;BME280;7822;48.146;11.576;2023-02-28T02:45:27;95431.59;;;14.11;55.19
15444;BME280;7822;48.146;11.576;2023-02-28T02:47:58;95429.81;;;14.12;55.24
15444;BME280;7822;48.146;11.576;2023-02-28T02:50:31;95437.50;;;14.13;55.46
15444;BME280;7822;48.146;11.576;2023-02-28T02:53:02;95425.41;;;14.12;55.50
15444;BME280;7822;48.146;11.576;2023-02-28T02:55:34;95434.06;;;14.13;55.47
15444;BME280;7822;48.146;11.576;2023-02-28T02:58:04;95432.28;;;14.13;55.40
15444;BME280;7822;48.146;11.576;2023-02-28T03:00:34;95428.84;;;14.13;55.36
15444;BME280;7822;48.146;11.576;2023-02-28T03:03:04;95422.00;;;14.12;55.29
15444;BME280;7822;48.146;11.576;2023-02-28T03:05:39;95426.38;;;14.11;55.39
15444;BME280;7822;48.146;11.576;2023-02-28T03:08:09;95422.00;;;14.12;55.61
15444;BME280;7822;48.146;11.576;2023-02-28T03:10:39;95420.19;;;14.12;55.44
15444;BME280;7822;48.146;11.576;2023-02-28T03:13:33;95419.38;;;14.12;55.51
15444;BME280;7822;48.146;11.576;2023-02-28T03:16:27;95422.94;;;14.11;55.54
15444;BME280;7822;48.146;11.576;2023-02-28T03:19:08;95428.16;;;14.11;55.55
15444;BME280;7822;48.146;11.576;2023-02-28T03:21:50;95434.31;;;14.10;55.33
15444;BME280;7822;48.146;11.576;2023-02-28T03:24:27;95432.53;;;14.10;55.54
15444;BME280;7822;48.146;11.576;2023-02-28T03:27:04;95436.81;;;14.11;55.53
15444;BME280;7822;48.146;11.576;2023-02-28T03:29:37;95437.75;;;14.10;55.51
15444;BME280;7822;48.146;11.576;2023-02-28T03:32:14;95432.53;;;14.10;55.50
15444;BME280;7822;48.146;11.576;2023-02-28T03:34:51;95435.16;;;14.10;55.53
15444;BME280;7822;48.146;11.576;2023-02-28T03:37:25;95438.75;;;14.09;55.63
15444;BME280;7822;48.146;11.576;2023-02-28T03:39:58;95432.53;;;14.10;55.47
15444;BME280;7822;48.146;11.576;2023-02-28T03:42:29;95429.94;;;14.10;55.42
15444;BME280;7822;48.146;11.576;2023-02-28T03:45:00;95430.91;;;14.09;55.72
15444;BME280;7822;48.146;11.576;2023-02-28T03:47:33;95440.38;;;14.10;55.72
15444;BME280;7822;48.146;11.576;2023-02-28T03:50:08;95438.75;;;14.09;55.72
15444;BME280;7822;48.146;11.576;2023-02-28T03:52:44;95443.97;;;14.09;55.63
15444;BME280;7822;48.146;11.576;2023-02-28T03:55:14;95439.69;;;14.08;55.34
15444;BME280;7822;48.146;11.576;2023-02-28T03:57:55;95437.91;;;14.09;55.68
15444;BME280;7822;48.146;11.576;2023-02-28T04:00:28;95442.97;;;14.10;55.74
15444;BME280;7822;48.146;11.576;2023-02-28T04:02:59;95440.50;;;14.09;55.92
15444;BME280;7822;48.146;11.576;2023-02-28T04:05:27;95446.41;;;14.11;55.85
15444;BME280;7822;48.146;11.576;2023-02-28T04:08:05;95452.59;;;14.10;55.73
15444;BME280;7822;48.146;11.576;2023-02-28T04:10:33;95459.47;;;14.11;55.88
15444;BME280;7822;48.146;11.576;2023-02-28T04:13:00;95467.28;;;14.11;55.67
15444;BME280;7822;48.146;11.576;2023-02-28T04:15:28;95468.13;;;14.11;55.81
15444;BME280;7822;48.146;11.576;2023-02-28T04:17:56;95477.72;;;14.11;55.75
15444;BME280;7822;48.146;11.576;2023-02-28T04:20:23;95483.78;;;14.11;56.11
15444;BME280;7822;48.146;11.576;2023-02-28T04:22:51;95480.19;;;14.12;55.82
15444;BME280;7822;48.146;11.576;2023-02-28T04:25:20;95478.56;;;14.11;55.61
15444;BME280;7822;48.146;11.576;2023-02-28T04:27:48;95488.16;;;14.11;55.59
15444;BME280;7822;48.146;11.576;2023-02-28T04:30:16;95479.38;;;14.12;55.95
15444;BME280;7822;48.146;11.576;2023-02-28T04:32:43;95475.94;;;14.11;55.66
15444;BME280;7822;48.146;11.576;2023-02-28T04:35:11;95476.06;;;14.10;55.77
15444;BME280;7822;48.146;11.576;2023-02-28T04:37:39;95475.13;;;14.11;55.87
15444;BME280;7822;48.146;11.576;2023-02-28T04:40:07;95468.13;;;14.11;55.87
15444;BME280;7822;48.146;11.576;2023-02-28T04:42:37;95462.06;;;14.11;55.97
15444;BME280;7822;48.146;11.576;2023-02-28T04:45:05;95473.34;;;14.11;55.94
15444;BME280;7822;48.146;11.576;2023-02-28T04:47:36;95469.91;;;14.11;56.26
15444;BME280;7822;48.146;11.576;2023-02-28T04:50:04;95478.56;;;14.11;56.21
15444;BME280;7822;48.146;11.576;2023-02-28T04:52:32;95480.34;;;14.11;55.95
15444;BME280;7822;48.146;11.576;2023-02-28T04:55:00;95481.16;;;14.11;55.87
15444;BME280;7822;48.146;11.576;2023-02-28T04:57:28;95488.16;;;14.11;56.00
15444;BME280;7822;48.146;11.576;2023-02-28T04:59:57;95482.09;;;14.10;55.98
15444;BME280;7822;48.146;11.576;2023-02-28T05:02:25;95481.28;;;14.10;55.89
15444;BME280;7822;48.146;11.576;2023-02-28T05:04:52;95483.78;;;14.11;56.05
15444;BME280;7822;48.146;11.576;2023-02-28T05:07:20;95491.59;;;14.11;55.89
15444;BME280;7822;48.146;11.576;2023-02-28T05:09:48;95493.38;;;14.11;55.93
15444;BME280;7822;48.146;11.576;2023-02-28T05:12:16;95492.44;;;14.12;56.16
15444;BME280;7822;48.146;11.576;2023-02-28T05:14:43;95491.59;;;14.11;55.93
15444;BME280;7822;48.146;11.576;2023-02-28T05:17:12;95495.97;;;14.11;56.08
15444;BME280;7822;48.146;11.576;2023-02-28T05:19:40;95498.59;;;14.11;55.91
15444;BME280;7822;48.146;11.576;2023-02-28T05:22:13;95496.81;;;14.11;56.05
15444;BME280;7822;48.146;11.576;2023-02-28T05:24:41;95499.44;;;14.11;55.65
15444;BME280;7822;48.146;11.576;2023-02-28T05:27:09;95489.94;;;14.10;55.93
15444;BME280;7822;48.146;11.576;2023-02-28T05:29:37;95500.38;;;14.10;55.70
15444;BME280;7822;48.146;11.576;2023-02-28T05:32:09;95485.56;;;14.11;55.71
15444;BME280;7822;48.146;11.576;2023-02-28T05:34:39;95502.88;;;14.12;55.86
15444;BME280;7822;48.146;11.576;2023-02-28T05:37:11;95497.66;;;14.12;55.73
15444;BME280;7822;48.146;11.576;2023-02-28T05:39:39;95497.66;;;14.12;55.83
15444;BME280;7822;48.146;11.576;2023-02-28T05:42:07;95505.31;;;14.13;55.81
15444;BME280;7822;48.146;11.576;2023-02-28T05:44:35;95505.31;;;14.13;56.09
15444;BME280;7822;48.146;11.576;2023-02-28T05:47:03;95495.72;;;14.14;55.58
15444;BME280;7822;48.146;11.576;2023-02-28T05:49:31;95502.56;;;14.15;55.97
15444;BME280;7822;48.146;11.576;2023-02-28T05:52:00;95501.75;;;14.14;56.05
15444;BME280;7822;48.146;11.576;2023-02-28T05:54:27;95499.97;;;14.15;55.73
15444;BME280;7822;48.146;11.576;2023-02-28T05:56:55;95500.94;;;14.14;55.25
15444;BME280;7822;48.146;11.576;2023-02-28T05:59:22;95506.97;;;14.14;55.36
15444;BME280;7822;48.146;11.576;2023-02-28T06:01:50;95509.56;;;14.14;55.38
15444;BME280;7822;48.146;11.576;2023-02-28T06:04:20;95519.06;;;14.16;55.54
15444;BME280;7822;48.146;11.576;2023-02-28T06:06:57;95519.06;;;14.16;55.73
15444;BME280;7822;48.146;11.576;2023-02-28T06:09:26;95516.44;;;14.16;55.55
15444;BME280;7822;48.146;11.576;2023-02-28T06:11:54;95525.09;;;14.16;55.82
15444;BME280;7822;48.146;11.576;2023-02-28T06:14:21;95526.88;;;14.16;55.78
15444;BME280;7822;48.146;11.576;2023-02-28T06:16:49;95526.88;;;14.16;56.10
15444;BME280;7822;48.146;11.576;2023-02-28T06:19:17;95523.44;;;14.15;55.76
15444;BME280;7822;48.146;11.576;2023-02-28T06:21:45;95534.72;;;14.16;55.92
15444;BME280;7822;48.146;11.576;2023-02-28T06:24:15;95513.00;;;14.15;55.93
15444;BME280;7822;48.146;11.576;2023-02-28T06:26:44;95521.66;;;14.16;56.00
15444;BME280;7822;48.146;11.576;2023-02-28T06:29:12;95518.22;;;14.15;55.97
15444;BME280;7822;48.146;11.576;2023-02-28T06:31:45;95529.50;;;14.16;55.84
15444;BME280;7822;48.146;11.576;2023-02-28T06:34:13;95527.72;;;14.16;56.21
15444;BME280;7822;48.146;11.576;2023-02-28T06:36:41;95535.66;;;14.14;56.21
15444;BME280;7822;48.146;11.576;2023-02-28T06:39:09;95532.09;;;14.16;56.04
15444;BME280;7822;48.146;11.576;2023-02-28T06:41:37;95539.94;;;14.16;56.13
15444;BME280;7822;48.146;11.576;2023-02-28T06:44:22;95544.31;;;14.15;56.08
15444;BME280;7822;48.146;11.576;2023-02-28T06:46:50;95547.91;;;14.14;56.23
15444;BME280;7822;48.146;11.576;2023-02-28T06:49:18;95543.47;;;14.14;56.37
15444;BME280;7822;48.146;11.576;2023-02-28T06:51:46;95557.34;;;14.15;56.30
15444;BME280;7822;48.146;11.576;2023-02-28T06:54:13;95553.91;;;14.14;56.19
15444;BME280;7822;48.146;11.576;2023-02-28T06:56:41;95565.19;;;14.15;56.15
15444;BME280;7822;48.146;11.576;2023-02-28T06:59:09;95563.41;;;14.16;55.85
15444;BME280;7822;48.146;11.576;2023-02-28T07:01:38;95558.19;;;14.16;56.19
15444;BME280;7822;48.146;11.576;2023-02-28T07:04:06;95564.25;;;14.16;56.30
15444;BME280;7822;48.146;11.576;2023-02-28T07:06:34;95557.34;;;14.15;56.25
15444;BME280;7822;48.146;11.576;2023-02-28T07:09:02;95567.78;;;14.15;56.31
15444;BME280;7822;48.146;11.576;2023-02-28T07:11:31;95574.69;;;14.16;56.25
15444;BME280;7822;48.146;11.576;2023-02-28T07:13:59;95569.56;;;14.14;56.40
15444;BME280;7822;48.146;11.576;2023-02-28T07:16:27;95571.38;;;14.14;56.41
15444;BME280;7822;48.146;11.576;2023-02-28T07:18:56;95569.72;;;14.13;56.43
15444;BME280;7822;48.146;11.576;2023-02-28T07:21:23;95582.63;;;14.14;56.62
15444;BME280;7822;48.146;11.576;2023-02-28T07:23:51;95578.22;;;14.15;56.42
15444;BME280;7822;48.146;11.576;2023-02-28T07:26:20;95572.19;;;14.14;56.13
15444;BME280;7822;48.146;11.576;2023-02-28T07:28:48;95580.00;;;14.14;56.51
15444;BME280;7822;48.146;11.576;2023-02-28T07:31:16;95580.00;;;14.14;56.52
15444;BME280;7822;48.146;11.576;2023-02-28T07:33:45;95573.84;;;14.16;56.38
15444;BME280;7822;48.146;11.576;2023-02-28T07:36:16;95573.84;;;14.16;56.27
15444;BME280;7822;48.146;11.576;2023-02-28T07:38:46;95577.41;;;14.14;56.20
15444;BME280;7822;48.146;11.576;2023-02-28T07:41:16;95571.25;;;14.16;56.46
15444;BME280;7822;48.146;11.576;2023-02-28T07:43:45;95573.84;;;14.16;56.46
15444;BME280;7822;48.146;11.576;2023-02-28T07:46:14;95568.78;;;14.14;56.36
15444;BME280;7822;48.146;11.576;2023-02-28T07:48:43;95576.44;;;14.16;56.51
15444;BME280;7822;48.146;11.576;2023-02-28T07:51:11;95565.34;;;14.13;56.28
15444;BME280;7822;48.146;11.576;2023-02-28T07:53:40;95567.94;;;14.13;56.37
15444;BME280;7822;48.146;11.576;2023-02-28T07:56:08;95570.56;;;14.13;56.37
15444;BME280;7822;48.146;11.576;2023-02-28T07:58:37;95571.38;;;14.14;56.41
15444;BME280;7822;48.146;11.576;2023-02-28T08:01:05;95571.38;;;14.14;56.25
15444;BME280;7822;48.146;11.576;2023-02-28T08:03:34;95574.94;;;14.13;56.22
15444;BME280;7822;48.146;11.576;2023-02-28T08:06:02;95570.56;;;14.13;56.39
15444;BME280;7822;48.146;11.576;2023-02-28T08:08:30;95584.44;;;14.14;56.26
15444;BME280;7822;48.146;11.576;2023-02-28T08:11:01;95580.16;;;14.13;56.36
15444;BME280;7822;48.146;11.576;2023-02-28T08:13:30;95580.00;;;14.14;56.33
15444;BME280;7822;48.146;11.576;2023-02-28T08:15:58;95587.03;;;14.14;56.42
15444;BME280;7822;48.146;11.576;2023-02-28T08:18:25;95594.03;;;14.13;56.38
15444;BME280;7822;48.146;11.576;2023-02-28T08:20:53;95591.41;;;14.13;56.09
15444;BME280;7822;48.146;11.576;2023-02-28T08:23:20;95589.66;;;14.14;56.47
15444;BME280;7822;48.146;11.576;2023-02-28T08:25:53;95590.59;;;14.13;56.45
15444;BME280;7822;48.146;11.576;2023-02-28T08:28:22;95594.97;;;14.12;56.42
15444;BME280;7822;48.146;11.576;2023-02-28T08:30:52;95597.59;;;14.12;56.64
15444;BME280;7822;48.146;11.576;2023-02-28T08:33:21;95600.19;;;14.12;56.29
15444;BME280;7822;48.146;11.576;2023-02-28T08:35:52;95601.03;;;14.13;56.33
15444;BME280;7822;48.146;11.576;2023-02-28T08:38:21;95601.84;;;14.13;56.44
15444;BME280;7822;48.146;11.576;2023-02-28T08:40:48;95609.00;;;14.11;56.51
15444;BME280;7822;48.146;11.576;2023-02-28T08:43:16;95609.69;;;14.13;56.43
15444;BME280;7822;48.146;11.576;2023-02-28T08:45:45;95602.81;;;14.12;56.57
15444;BME280;7822;48.146;11.576;2023-02-28T08:48:13;95602.81;;;14.12;56.63
15444;BME280;7822;48.146;11.576;2023-02-28T08:50:43;95608.03;;;14.12;56.57
15444;BME280;7822;48.146;11.576;2023-02-28T08:53:24;95611.47;;;14.13;56.37
15444;BME280;7822;48.146;11.576;2023-02-28T08:55:58;95613.25;;;14.12;56.55
15444;BME280;7822;48.146;11.576;2023-02-28T08:58:27;95612.28;;;14.13;56.51
15444;BME280;7822;48.146;11.576;2023-02-28T09:00:56;95611.47;;;14.13;56.71
15444;BME280;7822;48.146;11.576;2023-02-28T09:03:24;95615.59;;;14.16;56.41
15444;BME280;7822;48.146;11.576;2023-02-28T09:05:57;95616.53;;;14.14;56.52
15444;BME280;7822;48.146;11.576;2023-02-28T09:08:28;95619.16;;;14.14;56.71
15444;BME280;7822;48.146;11.576;2023-02-28T09:10:56;95611.19;;;14.16;56.93
15444;BME280;7822;48.146;11.576;2023-02-28T09:13:27;95613.81;;;14.16;56.72
15444;BME280;7822;48.146;11.576;2023-02-28T09:15:59;95613.81;;;14.16;56.65
15444;BME280;7822;48.146;11.576;2023-02-28T09:18:27;95618.19;;;14.16;56.62
15444;BME280;7822;48.146;11.576;2023-02-28T09:20:55;95621.63;;;14.16;56.71
15444;BME280;7822;48.146;11.576;2023-02-28T09:23:24;95625.19;;;14.15;56.84
15444;BME280;7822;48.146;11.576;2023-02-28T09:25:53;95629.56;;;14.14;56.78
15444;BME280;7822;48.146;11.576;2023-02-28T09:28:22;95636.59;;;14.14;56.71
15444;BME280;7822;48.146;11.576;2023-02-28T09:30:51;95635.63;;;14.15;56.96
15444;BME280;7822;48.146;11.576;2023-02-28T09:33:21;95629.56;;;14.14;56.51
15444;BME280;7822;48.146;11.576;2023-02-28T09:35:49;95639.06;;;14.16;56.71
15444;BME280;7822;48.146;11.576;2023-02-28T09:38:17;95635.63;;;14.15;56.95
15444;BME280;7822;48.146;11.576;2023-02-28T09:40:49;95640.00;;;14.14;57.03
15444;BME280;7822;48.146;11.576;2023-02-28T09:43:20;95647.03;;;14.14;56.84
15444;BME280;7822;48.146;11.576;2023-02-28T09:45:52;95649.66;;;14.14;56.89
15444;BME280;7822;48.146;11.576;2023-02-28T09:48:28;95647.03;;;14.14;56.75
15444;BME280;7822;48.146;11.576;2023-02-28T09:51:00;95651.44;;;14.13;56.91
15444;BME280;7822;48.146;11.576;2023-02-28T09:53:32;95649.66;;;14.14;57.18
15444;BME280;7822;48.146;11.576;2023-02-28T09:56:03;95655.81;;;14.13;56.97
15444;BME280;7822;48.146;11.576;2023-02-28T09:58:37;95660.09;;;14.14;56.97
15444;BME280;7822;48.146;11.576;2023-02-28T10:01:12;95660.09;;;14.14;56.74
15444;BME280;7822;48.146;11.576;2023-02-28T10:03:50;95664.47;;;14.13;56.95
15444;BME280;7822;48.146;11.576;2023-02-28T10:06:28;95660.88;;;14.14;56.98
15444;BME280;7822;48.146;11.576;2023-02-28T10:09:00;95661.88;;;14.13;56.67
15444;BME280;7822;48.146;11.576;2023-02-28T10:11:29;95665.31;;;14.14;57.12
15444;BME280;7822;48.146;11.576;2023-02-28T10:14:00;95667.91;;;14.14;56.94
15444;BME280;7822;48.146;11.576;2023-02-28T10:16:36;95666.25;;;14.13;57.02
15444;BME280;7822;48.146;11.576;2023-02-28T10:19:11;95662.81;;;14.12;57.00
15444;BME280;7822;48.146;11.576;2023-02-28T10:21:47;95673.25;;;14.12;57.20
15444;BME280;7822;48.146;11.576;2023-02-28T10:24:21;95674.91;;;14.13;56.48
15444;BME280;7822;48.146;11.576;2023-02-28T10:26:52;95673.25;;;14.12;56.88
15444;BME280;7822;48.146;11.576;2023-02-28T10:29:23;95676.69;;;14.13;57.01
15444;BME280;7822;48.146;11.576;2023-02-28T10:31:51;95685.34;;;14.13;56.85
15444;BME280;7822;48.146;11.576;2023-02-28T10:34:20;95680.97;;;14.14;57.28
15444;BME280;7822;48.146;11.576;2023-02-28T10:36:49;95690.56;;;14.13;56.92
15444;BME280;7822;48.146;11.576;2023-02-28T10:39:38;95697.56;;;14.13;57.00
15444;BME280;7822;48.146;11.576;2023-02-28T10:42:22;95693.16;;;14.13;56.96
15444;BME280;7822;48.146;11.576;2023-02-28T10:45:10;95689.59;;;14.14;57.23
15444;BME280;7822;48.146;11.576;2023-02-28T10:47:49;95696.63;;;14.14;57.01
15444;BME280;7822;48.146;11.576;2023-02-28T10:50:32;95688.78;;;14.14;56.78
15444;BME280;7822;48.146;11.576;2023-02-28T10:53:10;95703.59;;;14.13;57.12
15444;BME280;7822;48.146;11.576;2023-02-28T10:55:42;95707.06;;;14.14;56.78
15444;BME280;7822;48.146;11.576;2023-02-28T10:58:24;95704.44;;;14.14;57.08
15444;BME280;7822;48.146;11.576;2023-02-28T11:00:52;95689.72;;;14.13;57.26
15444;BME280;7822;48.146;11.576;2023-02-28T11:03:28;95699.22;;;14.14;57.17
15444;BME280;7822;48.146;11.576;2023-02-28T11:06:04;95704.44;;;14.14;57.12
15444;BME280;7822;48.146;11.576;2023-02-28T11:08:43;95700.84;;;14.15;57.23
15444;BME280;7822;48.146;11.576;2023-02-28T11:11:11;95707.06;;;14.14;57.17
15444;BME280;7822;48.146;11.576;2023-02-28T11:13:39;95705.25;;;14.14;57.02
15444;BME280;7822;48.146;11.576;2023-02-28T11:16:10;95707.84;;;14.14;57.18
15444;BME280;7822;48.146;11.576;2023-02-28T11:18:42;95699.22;;;14.14;57.09
15444;BME280;7822;48.146;11.576;2023-02-28T11:21:19;95697.56;;;14.13;56.91
15444;BME280;7822;48.146;11.576;2023-02-28T11:23:49;95707.06;;;14.14;57.12
15444;BME280;7822;48.146;11.576;2023-02-28T11:26:37;95687.94;;;14.13;57.25
15444;BME280;7822;48.146;11.576;2023-02-28T11:29:18;95694.13;;;14.12;57.17
15444;BME280;7822;48.146;11.576;2023-02-28T11:32:02;95680.28;;;14.12;57.06
15444;BME280;7822;48.146;11.576;2023-02-28T11:34:31;95687.13;;;14.13;57.18
15444;BME280;7822;48.146;11.576;2023-02-28T11:37:01;95690.72;;;14.12;57.28
15444;BME280;7822;48.146;11.576;2023-02-28T11:39:32;95691.50;;;14.12;57.16
15444;BME280;7822;48.146;11.576;2023-02-28T11:42:14;95687.94;;;14.13;57.43
15444;BME280;7822;48.146;11.576;2023-02-28T11:44:58;95677.50;;;14.13;57.33
15444;BME280;7822;48.146;11.576;2023-02-28T11:47:34;95681.06;;;14.12;57.55
15444;BME280;7822;48.146;11.576;2023-02-28T11:50:20;95676.69;;;14.13;57.33
15444;BME280;7822;48.146;11.576;2023-02-28T11:52:54;95672.31;;;14.13;57.31
15444;BME280;7822;48.146;11.576;2023-02-28T11:55:25;95667.09;;;14.13;57.51
15444;BME280;7822;48.146;11.576;2023-02-28T11:58:23;95670.63;;;14.12;57.33
15444;BME280;7822;48.146;11.576;2023-02-28T12:01:06;95662.81;;;14.12;57.34
15444;BME280;7822;48.146;11.576;2023-02-28T12:03:43;95660.19;;;14.12;57.35
15444;BME280;7822;48.146;11.576;2023-02-28T12:06:19;95667.09;;;14.13;57.51
15444;BME280;7822;48.146;11.576;2023-02-28T12:09:00;95669.69;;;14.13;57.47
15444;BME280;7822;48.146;11.576;2023-02-28T12:11:36;95663.63;;;14.13;57.44
15444;BME280;7822;48.146;11.576;2023-02-28T12:14:35;95649.66;;;14.14;57.44
15444;BME280;7822;48.146;11.576;2023-02-28T12:17:16;95647.84;;;14.14;57.49
15444;BME280;7822;48.146;11.576;2023-02-28T12:19:54;95654.88;;;14.14;57.29
15444;BME280;7822;48.146;11.576;2023-02-28T12:22:28;95663.38;;;14.16;57.17
15444;BME280;7822;48.146;11.576;2023-02-28T12:25:20;95646.91;;;14.16;57.12
15444;BME280;7822;48.146;11.576;2023-02-28T12:27:49;95644.28;;;14.16;57.35
15444;BME280;7822;48.146;11.576;2023-02-28T12:30:22;95646.91;;;14.16;57.44
15444;BME280;7822;48.146;11.576;2023-02-28T12:32:54;95642.50;;;14.16;57.51
15444;BME280;7822;48.146;11.576;2023-02-28T12:35:26;95645.13;;;14.16;57.49
15444;BME280;7822;48.146;11.576;2023-02-28T12:37:57;95639.75;;;14.18;57.37
15444;BME280;7822;48.146;11.576;2023-02-28T12:40:38;95635.47;;;14.17;57.37
15444;BME280;7822;48.146;11.576;2023-02-28T12:43:12;95635.47;;;14.17;57.34
15444;BME280;7822;48.146;11.576;2023-02-28T12:45:44;95630.28;;;14.17;57.51
15444;BME280;7822;48.146;11.576;2023-02-28T12:48:19;95628.50;;;14.17;57.16
15444;BME280;7822;48.146;11.576;2023-02-28T12:50:47;95623.28;;;14.17;57.06
15444;BME280;7822;48.146;11.576;2023-02-28T12:53:23;95617.22;;;14.17;57.10
15444;BME280;7822;48.146;11.576;2023-02-28T12:56:05;95625.88;;;14.17;57.68
15444;BME280;7822;48.146;11.576;2023-02-28T12:58:39;95625.88;;;14.17;57.17
15444;BME280;7822;48.146;11.576;2023-02-28T13:01:32;95621.63;;;14.16;57.45
15444;BME280;7822;48.146;11.576;2023-02-28T13:04:34;95624.25;;;14.16;57.32
15444;BME280;7822;48.146;11.576;2023-02-28T13:07:24;95619.84;;;14.17;57.35
15444;BME280;7822;48.146;11.576;2023-02-28T13:09:57;95626.72;;;14.18;57.43
15444;BME280;7822;48.146;11.576;2023-02-28T13:12:27;95622.44;;;14.17;57.50
15444;BME280;7822;48.146;11.576;2023-02-28T13:15:04;95623.28;;;14.17;57.45
15444;BME280;7822;48.146;11.576;2023-02-28T13:17:32;95620.56;;;14.19;57.49
15444;BME280;7822;48.146;11.576;2023-02-28T13:20:00;95619.84;;;14.17;57.37
15444;BME280;7822;48.146;11.576;2023-02-28T13:22:39;95621.50;;;14.18;57.56
15444;BME280;7822;48.146;11.576;2023-02-28T13:25:50;95622.31;;;14.18;57.39
15444;BME280;7822;48.146;11.576;2023-02-28T13:34:38;95621.50;;;14.18;57.46